createdAt,value
2022-08-05T00:02:12.870Z,4.38
2022-08-05T00:04:47.446Z,5.00
2022-08-05T00:08:00.272Z,4.85
2022-08-05T00:10:27.208Z,5.45
2022-08-05T00:13:00.571Z,4.68
2022-08-05T00:15:57.712Z,4.75
2022-08-05T00:18:28.756Z,4.90
2022-08-05T00:21:02.014Z,4.57
2022-08-05T00:23:45.768Z,5.20
2022-08-05T00:26:20.726Z,4.95
2022-08-05T00:28:55.551Z,5.05
2022-08-05T00:31:53.934Z,4.97
2022-08-05T00:34:53.478Z,5.20
2022-08-05T00:37:16.548Z,5.15
2022-08-05T00:39:57.914Z,4.78
2022-08-05T00:42:33.240Z,5.20
2022-08-05T00:45:11.608Z,5.53
2022-08-05T00:47:53.238Z,5.43
2022-08-05T00:50:29.849Z,5.03
2022-08-05T00:53:03.026Z,4.72
2022-08-05T00:55:42.883Z,5.35
2022-08-05T00:58:19.050Z,5.50
2022-08-05T01:00:52.537Z,4.93
2022-08-05T01:03:31.062Z,4.88
2022-08-05T01:06:11.306Z,5.28
2022-08-05T01:08:48.543Z,5.03
2022-08-05T01:11:33.484Z,5.00
2022-08-05T01:14:16.180Z,5.18
2022-08-05T01:16:54.246Z,5.35
2022-08-05T01:20:01.940Z,5.60
2022-08-05T01:22:47.255Z,5.57
2022-08-05T01:25:42.303Z,5.38
2022-08-05T01:28:34.491Z,5.50
2022-08-05T01:31:14.436Z,6.00
2022-08-05T01:33:55.326Z,5.93
2022-08-05T01:36:35.368Z,5.93
2022-08-05T01:39:36.134Z,5.55
2022-08-05T01:42:15.301Z,5.75
2022-08-05T01:44:54.300Z,5.97
2022-08-05T01:47:38.949Z,5.20
2022-08-05T01:50:18.696Z,5.75
2022-08-05T01:53:06.107Z,5.63
2022-08-05T01:55:45.229Z,5.68
2022-08-05T01:58:40.356Z,5.72
2022-08-05T02:01:23.300Z,5.85
2022-08-05T02:03:59.993Z,5.85
2022-08-05T02:06:38.348Z,6.47
2022-08-05T02:09:12.187Z,6.25
2022-08-05T02:11:58.081Z,5.97
2022-08-05T02:14:35.611Z,6.22
2022-08-05T02:17:29.861Z,6.57
2022-08-05T02:20:23.142Z,5.93
2022-08-05T02:22:59.963Z,6.28
2022-08-05T02:25:49.830Z,6.43
2022-08-05T02:28:32.114Z,6.40
2022-08-05T02:31:14.528Z,5.88
2022-08-05T02:33:57.236Z,6.07
2022-08-05T02:36:32.563Z,5.65
2022-08-05T02:39:09.837Z,5.93
2022-08-05T02:42:00.429Z,6.07
2022-08-05T02:44:37.234Z,6.22
2022-08-05T02:47:12.356Z,5.22
2022-08-05T02:49:49.442Z,6.00
2022-08-05T02:52:29.652Z,5.57
2022-08-05T02:55:06.586Z,6.18
2022-08-05T02:58:11.822Z,5.53
2022-08-05T03:00:39.807Z,5.80
2022-08-05T03:03:16.533Z,5.45
2022-08-05T03:06:54.301Z,5.53
2022-08-05T03:08:45.977Z,5.32
2022-08-05T03:11:57.675Z,5.90
2022-08-05T03:14:21.787Z,5.93
2022-08-05T03:16:55.188Z,5.93
2022-08-05T03:19:34.148Z,5.63
2022-08-05T03:22:16.618Z,5.45
2022-08-05T03:24:53.414Z,5.45
2022-08-05T03:27:29.640Z,5.82
2022-08-05T03:30:13.399Z,5.45
2022-08-05T03:32:46.852Z,5.43
2022-08-05T03:35:20.708Z,6.13
2022-08-05T03:37:58.491Z,5.80
2022-08-05T03:40:32.250Z,5.68
2022-08-05T03:43:59.083Z,6.18
2022-08-05T03:45:59.162Z,6.00
2022-08-05T03:48:35.161Z,5.90
2022-08-05T03:52:37.212Z,5.72
2022-08-05T03:55:50.018Z,7.28
2022-08-05T03:57:18.317Z,9.10
2022-08-05T04:00:01.597Z,6.53
2022-08-05T04:02:52.247Z,5.95
2022-08-05T04:05:34.898Z,5.93
2022-08-05T04:08:14.485Z,6.00
2022-08-05T04:11:08.695Z,7.13
2022-08-05T04:13:50.526Z,6.65
2022-08-05T04:16:32.139Z,6.15
2022-08-05T04:19:10.644Z,7.20
2022-08-05T04:22:09.085Z,9.68
2022-08-05T04:24:37.070Z,7.88
2022-08-05T04:27:19.146Z,7.35
2022-08-05T04:29:52.315Z,7.10
2022-08-05T04:32:30.979Z,6.97
2022-08-05T04:35:17.609Z,6.60
2022-08-05T04:38:00.910Z,6.38
2022-08-05T04:40:36.947Z,6.05
2022-08-05T04:43:16.724Z,6.18
2022-08-05T04:45:55.173Z,6.65
2022-08-05T04:48:28.913Z,6.53
2022-08-05T04:51:09.993Z,6.68
2022-08-05T04:53:44.788Z,9.02
2022-08-05T04:56:34.913Z,8.77
2022-08-05T04:59:22.343Z,8.40
2022-08-05T05:02:07.653Z,6.95
2022-08-05T05:04:51.735Z,6.50
2022-08-05T05:07:29.608Z,6.75
2022-08-05T05:10:06.654Z,7.53
2022-08-05T05:12:39.937Z,7.38
2022-08-05T05:15:17.540Z,7.10
2022-08-05T05:18:08.965Z,6.88
2022-08-05T05:20:46.056Z,6.95
2022-08-05T05:23:19.900Z,6.88
2022-08-05T05:25:53.299Z,7.28
2022-08-05T05:28:26.729Z,7.18
2022-08-05T05:31:05.775Z,6.68
2022-08-05T05:33:59.261Z,6.82
2022-08-05T05:36:33.387Z,7.00
2022-08-05T05:39:11.479Z,6.13
2022-08-05T05:41:44.623Z,6.35
2022-08-05T05:44:36.611Z,6.35
2022-08-05T05:47:23.567Z,6.35
2022-08-05T05:50:04.669Z,6.15
2022-08-05T05:52:40.716Z,6.45
2022-08-05T05:55:20.222Z,6.57
2022-08-05T05:57:54.399Z,6.88
2022-08-05T06:00:31.818Z,7.38
2022-08-05T06:03:39.695Z,7.25
2022-08-05T06:06:03.116Z,6.38
2022-08-05T06:08:37.280Z,8.70
2022-08-05T06:11:13.361Z,5.97
2022-08-05T06:13:50.553Z,6.78
2022-08-05T06:16:30.697Z,6.57
2022-08-05T06:19:08.070Z,6.38
2022-08-05T06:21:42.957Z,6.95
2022-08-05T06:24:25.856Z,5.53
2022-08-05T06:27:00.862Z,5.90
2022-08-05T06:29:49.710Z,6.13
2022-08-05T06:32:29.514Z,6.97
2022-08-05T06:35:05.822Z,7.57
2022-08-05T06:37:57.575Z,5.57
2022-08-05T06:40:32.366Z,7.85
2022-08-05T06:43:05.816Z,8.20
2022-08-05T06:46:03.961Z,9.38
2022-08-05T06:48:55.440Z,5.63
2022-08-05T06:51:33.770Z,5.95
2022-08-05T06:54:07.063Z,8.05
2022-08-05T06:56:41.275Z,5.07
2022-08-05T06:59:28.348Z,6.25
2022-08-05T07:02:11.821Z,4.57
2022-08-05T07:04:48.066Z,5.25
2022-08-05T07:07:24.022Z,5.15
2022-08-05T07:10:10.996Z,6.40
2022-08-05T07:13:05.878Z,6.95
2022-08-05T07:16:01.449Z,5.32
2022-08-05T07:18:37.557Z,4.80
2022-08-05T07:21:25.867Z,3.30
2022-08-05T07:24:01.226Z,5.72
2022-08-05T07:26:34.588Z,3.28
2022-08-05T07:29:07.995Z,3.63
2022-08-05T07:31:54.659Z,3.70
2022-08-05T07:34:28.787Z,3.63
2022-08-05T07:37:01.991Z,3.92
2022-08-05T07:40:04.290Z,4.47
2022-08-05T07:42:31.770Z,3.78
2022-08-05T07:45:09.292Z,3.35
2022-08-05T07:47:42.994Z,3.63
2022-08-05T07:50:16.835Z,3.17
2022-08-05T07:52:49.952Z,3.40
2022-08-05T07:55:44.259Z,3.80
2022-08-05T07:58:57.488Z,4.07
2022-08-05T08:01:12.090Z,3.22
2022-08-05T08:03:45.629Z,2.65
2022-08-05T08:06:28.133Z,3.28
2022-08-05T08:09:01.415Z,2.67
2022-08-05T08:11:53.614Z,2.55
2022-08-05T08:14:28.927Z,2.60
2022-08-05T08:17:02.001Z,2.60
2022-08-05T08:20:10.135Z,2.42
2022-08-05T08:22:28.769Z,2.35
2022-08-05T08:25:02.721Z,3.10
2022-08-05T08:27:42.308Z,2.50
2022-08-05T08:30:32.497Z,2.30
2022-08-05T08:33:13.955Z,2.35
2022-08-05T08:35:52.911Z,2.38
2022-08-05T08:38:37.699Z,2.88
2022-08-05T08:41:14.258Z,2.20
2022-08-05T08:45:20.396Z,2.00
2022-08-05T08:46:43.562Z,2.40
2022-08-05T08:50:14.290Z,2.20
2022-08-05T08:52:15.666Z,2.17
2022-08-05T08:54:48.780Z,2.80
2022-08-05T08:57:22.869Z,2.08
2022-08-05T09:00:05.857Z,2.42
2022-08-05T09:02:39.117Z,2.30
2022-08-05T09:05:17.493Z,2.03
2022-08-05T09:07:57.612Z,2.17
2022-08-05T09:10:31.439Z,2.08
2022-08-05T09:13:05.255Z,2.20
2022-08-05T09:15:40.973Z,2.63
2022-08-05T09:18:14.149Z,2.40
2022-08-05T09:20:51.286Z,2.17
2022-08-05T09:23:27.179Z,2.78
2022-08-05T09:26:15.881Z,2.95
2022-08-05T09:29:00.687Z,2.50
2022-08-05T09:32:40.125Z,2.00
2022-08-05T09:34:48.795Z,1.98
2022-08-05T09:38:17.047Z,2.28
2022-08-05T09:40:33.568Z,2.85
2022-08-05T09:43:08.420Z,2.13
2022-08-05T09:46:07.571Z,2.30
2022-08-05T09:48:39.460Z,2.13
2022-08-05T09:51:15.265Z,2.42
2022-08-05T09:53:59.340Z,2.38
2022-08-05T09:56:35.297Z,2.35
2022-08-05T09:59:17.238Z,2.25
2022-08-05T10:01:57.978Z,2.22
2022-08-05T10:04:40.929Z,2.30
2022-08-05T10:07:20.791Z,2.60
2022-08-05T10:10:15.110Z,2.72
2022-08-05T10:12:53.585Z,2.35
2022-08-05T10:15:34.331Z,2.50
2022-08-05T10:18:14.642Z,2.30
2022-08-05T10:20:53.755Z,2.40
2022-08-05T10:23:55.633Z,2.50
2022-08-05T10:26:32.433Z,2.60
2022-08-05T10:29:09.118Z,2.53
2022-08-05T10:32:55.166Z,2.85
2022-08-05T10:34:36.603Z,3.10
2022-08-05T10:37:15.326Z,2.10
2022-08-05T10:40:03.097Z,2.45
2022-08-05T10:42:39.809Z,2.55
2022-08-05T10:45:30.490Z,3.47
2022-08-05T10:48:38.440Z,2.20
2022-08-05T10:51:28.477Z,2.78
2022-08-05T10:54:05.821Z,2.38
2022-08-05T10:56:58.688Z,2.38
2022-08-05T11:00:03.391Z,2.50
2022-08-05T11:02:38.182Z,2.30
2022-08-05T11:05:12.058Z,2.55
2022-08-05T11:08:12.725Z,2.10
2022-08-05T11:11:44.365Z,2.35
2022-08-05T11:14:57.835Z,2.50
2022-08-05T11:18:07.475Z,2.05
2022-08-05T11:20:44.233Z,2.70
2022-08-05T11:24:02.338Z,2.78
2022-08-05T11:26:28.972Z,2.33
2022-08-05T11:29:13.026Z,3.13
2022-08-05T11:31:58.704Z,2.38
2022-08-05T11:34:52.125Z,2.78
2022-08-05T11:38:36.951Z,2.47
2022-08-05T11:41:12.929Z,2.20
2022-08-05T11:44:07.317Z,2.28
2022-08-05T11:46:58.451Z,2.30
2022-08-05T11:49:37.975Z,2.10
2022-08-05T11:52:12.175Z,2.53
2022-08-05T11:54:54.964Z,1.98
2022-08-05T11:58:07.861Z,2.20
2022-08-05T12:00:31.752Z,2.05
2022-08-05T12:03:28.674Z,4.47
2022-08-05T12:06:06.474Z,2.20
2022-08-05T12:08:50.068Z,2.30
2022-08-05T12:11:40.603Z,2.67
2022-08-05T12:14:15.423Z,2.28
2022-08-05T12:16:52.646Z,2.22
2022-08-05T12:20:25.399Z,2.95
2022-08-05T12:22:22.748Z,2.40
2022-08-05T12:24:57.839Z,2.15
2022-08-05T12:27:33.232Z,2.80
2022-08-05T12:30:09.707Z,2.53
2022-08-05T12:32:51.158Z,3.00
2022-08-05T12:35:24.845Z,2.30
2022-08-05T12:38:13.157Z,2.38
2022-08-05T12:40:48.288Z,2.63
2022-08-05T12:43:23.519Z,2.55
2022-08-05T12:45:57.785Z,2.60
2022-08-05T12:48:40.135Z,2.33
2022-08-05T12:52:10.178Z,2.70
2022-08-05T12:54:16.471Z,2.33
2022-08-05T12:57:00.034Z,2.60
2022-08-05T13:00:08.798Z,2.58
2022-08-05T13:02:30.599Z,3.20
2022-08-05T13:05:08.399Z,3.30
2022-08-05T13:07:59.435Z,2.95
2022-08-05T13:10:34.077Z,2.70
2022-08-05T13:13:08.944Z,2.92
2022-08-05T13:15:50.927Z,2.75
2022-08-05T13:18:24.405Z,2.70
2022-08-05T13:20:58.846Z,2.72
2022-08-05T13:23:31.938Z,2.53
2022-08-05T13:26:07.631Z,2.97
2022-08-05T13:28:44.626Z,2.65
2022-08-05T13:31:17.686Z,3.00
2022-08-05T13:34:22.896Z,3.10
2022-08-05T13:37:00.273Z,2.95
2022-08-05T13:40:15.824Z,2.67
2022-08-05T13:42:27.411Z,2.70
2022-08-05T13:45:00.947Z,2.60
2022-08-05T13:48:08.478Z,2.50
2022-08-05T13:50:27.856Z,2.75
2022-08-05T13:53:03.021Z,2.78
2022-08-05T13:55:50.145Z,2.50
2022-08-05T13:58:32.215Z,2.97
2022-08-05T14:01:05.817Z,2.72
2022-08-05T14:03:40.414Z,2.50
2022-08-05T14:06:26.769Z,2.60
2022-08-05T14:09:02.126Z,2.83
2022-08-05T14:12:04.440Z,3.05
2022-08-05T14:14:34.848Z,3.17
2022-08-05T14:17:16.720Z,3.75
2022-08-05T14:19:55.281Z,2.42
2022-08-05T14:22:30.439Z,2.88
2022-08-05T14:25:21.456Z,2.95
2022-08-05T14:27:55.578Z,3.03
2022-08-05T14:30:28.705Z,2.95
2022-08-05T14:33:04.644Z,2.72
2022-08-05T14:35:50.337Z,2.60
2022-08-05T14:38:32.118Z,2.83
2022-08-05T14:41:08.530Z,2.88
2022-08-05T14:43:59.214Z,2.97
2022-08-05T14:46:35.469Z,2.90
2022-08-05T14:49:08.798Z,3.05
2022-08-05T14:51:43.242Z,2.85
2022-08-05T14:54:27.861Z,3.55
2022-08-05T14:57:09.773Z,2.63
2022-08-05T14:59:46.863Z,2.83
2022-08-05T15:02:22.645Z,3.15
2022-08-05T15:04:55.797Z,2.83
2022-08-05T15:08:11.575Z,2.90
2022-08-05T15:10:28.828Z,3.22
2022-08-05T15:13:04.897Z,2.72
2022-08-05T15:15:55.842Z,3.28
2022-08-05T15:18:29.536Z,4.30
2022-08-05T15:21:07.225Z,2.90
2022-08-05T15:23:41.041Z,2.83
2022-08-05T15:26:15.428Z,3.00
2022-08-05T15:29:06.060Z,3.28
2022-08-05T15:31:39.363Z,2.88
2022-08-05T15:34:32.514Z,3.53
2022-08-05T15:37:07.026Z,5.13
2022-08-05T15:40:58.832Z,5.22
2022-08-05T15:42:53.514Z,9.05
2022-08-05T15:45:37.120Z,3.78
2022-08-05T15:48:14.423Z,3.58
2022-08-05T15:50:49.121Z,3.20
2022-08-05T15:53:26.491Z,3.97
2022-08-05T15:56:14.375Z,3.47
2022-08-05T15:58:47.967Z,3.08
2022-08-05T16:01:29.502Z,4.03
2022-08-05T16:04:10.404Z,3.83
2022-08-05T16:06:43.752Z,4.78
2022-08-05T16:09:16.946Z,4.28
2022-08-05T16:11:55.334Z,4.18
2022-08-05T16:14:29.523Z,3.22
2022-08-05T16:17:03.957Z,3.22
2022-08-05T16:20:04.758Z,3.00
2022-08-05T16:22:34.286Z,3.40
2022-08-05T16:25:10.041Z,3.22
2022-08-05T16:28:00.387Z,3.40
2022-08-05T16:30:36.595Z,3.13
2022-08-05T16:33:11.047Z,3.38
2022-08-05T16:35:44.649Z,4.00
2022-08-05T16:38:25.740Z,3.67
2022-08-05T16:42:12.835Z,3.60
2022-08-05T16:43:56.640Z,3.30
2022-08-05T16:46:30.420Z,4.15
2022-08-05T16:49:07.209Z,3.15
2022-08-05T16:51:42.903Z,6.18
2022-08-05T16:54:28.956Z,4.70
2022-08-05T16:57:06.632Z,3.60
2022-08-05T17:00:01.270Z,3.63
2022-08-05T17:02:37.604Z,3.22
2022-08-05T17:05:12.443Z,3.85
2022-08-05T17:07:54.767Z,4.00
2022-08-05T17:10:30.659Z,3.90
2022-08-05T17:13:04.009Z,3.65
2022-08-05T17:15:49.681Z,3.83
2022-08-05T17:18:24.590Z,4.00
2022-08-05T17:21:00.203Z,4.22
2022-08-05T17:24:04.503Z,4.15
2022-08-05T17:26:26.820Z,3.95
2022-08-05T17:28:59.911Z,3.53
2022-08-05T17:31:57.282Z,4.00
2022-08-05T17:34:34.786Z,3.97
2022-08-05T17:37:29.532Z,4.30
2022-08-05T17:40:03.540Z,3.70
2022-08-05T17:42:36.865Z,4.30
2022-08-05T17:45:20.797Z,4.03
2022-08-05T17:47:56.393Z,3.78
2022-08-05T17:50:30.966Z,3.80
2022-08-05T17:53:08.688Z,3.95
2022-08-05T17:55:41.946Z,4.13
2022-08-05T17:58:16.161Z,4.40
2022-08-05T18:00:51.025Z,3.88
2022-08-05T18:03:56.083Z,3.65
2022-08-05T18:06:18.150Z,3.72
2022-08-05T18:09:04.035Z,3.80
2022-08-05T18:11:37.203Z,3.42
2022-08-05T18:14:13.523Z,4.00
2022-08-05T18:16:53.441Z,3.80
2022-08-05T18:19:26.579Z,3.90
2022-08-05T18:22:09.592Z,3.70
2022-08-05T18:24:45.840Z,3.92
2022-08-05T18:27:19.198Z,3.67
2022-08-05T18:29:54.778Z,3.65
2022-08-05T18:32:29.690Z,3.78
2022-08-05T18:35:02.823Z,3.60
2022-08-05T18:37:40.240Z,3.65
2022-08-05T18:41:51.034Z,3.63
2022-08-05T18:43:09.128Z,3.42
2022-08-05T18:45:49.732Z,4.20
2022-08-05T18:48:30.576Z,3.95
2022-08-05T18:52:05.669Z,3.78
2022-08-05T18:54:17.171Z,3.75
2022-08-05T18:56:52.199Z,3.50
2022-08-05T18:59:43.212Z,3.80
2022-08-05T19:02:27.867Z,3.75
2022-08-05T19:06:03.444Z,3.90
2022-08-05T19:07:57.547Z,4.22
2022-08-05T19:10:31.460Z,4.13
2022-08-05T19:13:06.015Z,4.22
2022-08-05T19:15:58.828Z,4.28
2022-08-05T19:18:33.717Z,4.38
2022-08-05T19:21:07.870Z,3.85
2022-08-05T19:24:07.655Z,4.07
2022-08-05T19:26:34.274Z,4.38
2022-08-05T19:29:08.742Z,4.30
2022-08-05T19:31:44.912Z,4.43
2022-08-05T19:34:24.419Z,4.43
2022-08-05T19:36:57.466Z,4.80
2022-08-05T19:39:32.034Z,5.20
2022-08-05T19:42:35.760Z,4.80
2022-08-05T19:45:14.376Z,4.45
2022-08-05T19:47:47.754Z,5.18
2022-08-05T19:50:21.049Z,4.65
2022-08-05T19:52:56.614Z,5.55
2022-08-05T19:56:15.368Z,6.22
2022-08-05T19:58:53.494Z,5.68
2022-08-05T20:01:28.922Z,5.63
2022-08-05T20:04:02.406Z,6.28
2022-08-05T20:06:45.731Z,6.40
2022-08-05T20:09:19.119Z,6.47
2022-08-05T20:11:52.193Z,7.25
2022-08-05T20:14:26.997Z,7.25
2022-08-05T20:17:04.843Z,8.25
2022-08-05T20:19:41.376Z,7.95
2022-08-05T20:22:16.232Z,8.32
2022-08-05T20:24:49.788Z,7.55
2022-08-05T20:27:26.778Z,8.45
2022-08-05T20:30:00.523Z,8.75
2022-08-05T20:32:36.737Z,8.63
2022-08-05T20:35:18.301Z,8.55
2022-08-05T20:38:06.431Z,9.13
2022-08-05T20:40:43.182Z,9.43
2022-08-05T20:43:16.364Z,9.35
2022-08-05T20:45:57.005Z,9.30
2022-08-05T20:48:36.569Z,9.95
2022-08-05T20:51:09.971Z,9.45
2022-08-05T20:53:43.038Z,9.55
2022-08-05T20:56:34.238Z,9.10
2022-08-05T20:59:26.172Z,9.10
2022-08-05T21:02:00.423Z,9.48
2022-08-05T21:04:34.941Z,9.18
2022-08-05T21:07:10.849Z,9.55
2022-08-05T21:09:50.390Z,9.10
2022-08-05T21:12:27.060Z,9.20
2022-08-05T21:15:01.265Z,9.63
2022-08-05T21:17:34.570Z,8.73
2022-08-05T21:20:12.611Z,8.73
2022-08-05T21:23:07.367Z,9.85
2022-08-05T21:25:44.450Z,9.02
2022-08-05T21:28:18.710Z,9.07
2022-08-05T21:30:56.741Z,9.52
2022-08-05T21:33:36.831Z,9.68
2022-08-05T21:36:14.484Z,11.20
2022-08-05T21:39:00.914Z,11.90
2022-08-05T21:41:35.499Z,11.38
2022-08-05T21:44:08.931Z,15.02
2022-08-05T21:46:44.156Z,12.65
2022-08-05T21:49:48.690Z,13.13
2022-08-05T21:52:26.796Z,13.85
2022-08-05T21:55:06.812Z,13.70
2022-08-05T21:57:42.668Z,13.98
2022-08-05T22:00:16.650Z,14.15
2022-08-05T22:02:49.702Z,16.00
2022-08-05T22:05:27.329Z,15.20
2022-08-05T22:08:02.605Z,15.25
2022-08-05T22:10:35.828Z,14.80
2022-08-05T22:14:19.777Z,15.73
2022-08-05T22:16:20.490Z,14.35
2022-08-05T22:18:58.750Z,15.02
2022-08-05T22:21:32.132Z,15.32
2022-08-05T22:24:40.820Z,15.15
2022-08-05T22:28:10.225Z,15.63
2022-08-05T22:30:38.332Z,15.85
2022-08-05T22:33:57.255Z,15.68
2022-08-05T22:36:24.086Z,15.98
2022-08-05T22:38:57.807Z,15.73
2022-08-05T22:42:09.460Z,16.05
2022-08-05T22:44:37.441Z,14.68
2022-08-05T22:47:11.808Z,14.70
2022-08-05T22:50:19.664Z,14.50
2022-08-05T22:52:40.022Z,14.80
2022-08-05T22:55:18.258Z,13.65
2022-08-05T22:57:55.278Z,14.88
2022-08-05T23:00:28.404Z,13.90
2022-08-05T23:03:04.586Z,10.50
2022-08-05T23:05:37.867Z,10.60
2022-08-05T23:08:13.127Z,10.27
2022-08-05T23:10:50.857Z,10.23
2022-08-05T23:13:27.685Z,10.48
2022-08-05T23:16:02.956Z,10.55
2022-08-05T23:18:35.117Z,10.20
2022-08-05T23:21:11.627Z,9.32
2022-08-05T23:23:49.585Z,9.60
2022-08-05T23:26:25.359Z,9.80
2022-08-05T23:29:02.049Z,9.80
2022-08-05T23:31:37.627Z,9.98
2022-08-05T23:34:10.706Z,10.07
2022-08-05T23:36:44.576Z,9.85
2022-08-05T23:39:32.257Z,9.52
2022-08-05T23:42:28.999Z,8.77
2022-08-05T23:45:04.557Z,8.40
2022-08-05T23:47:48.437Z,7.88
2022-08-05T23:50:26.488Z,6.28
2022-08-05T23:52:59.697Z,5.82
2022-08-05T23:55:34.067Z,4.72
2022-08-05T23:58:07.139Z,5.15
